Home > Products > Valid Products > TAF

000
FTUS44 KBMX 010500
TAFANB
TAF
KANB 010527Z 0106/0206 01004KT P6SM SCT050 BKN100
      TEMPO 0109/0112 3SM BR
     FM011400 02006KT P6SM VCSH BKN150=



000
FTUS44 KBMX 010500
TAFMGM
TAF
KMGM 010527Z 0106/0206 36004KT P6SM BKN100
      TEMPO 0110/0113 4SM BR
     FM011500 03004KT P6SM BKN150=



000
FTUS44 KBMX 010500
TAFBHM
TAF
KBHM 010527Z 0106/0206 02006KT P6SM SCT050 BKN100
     FM011500 01006KT P6SM BKN150=



000
FTUS44 KBMX 010500
TAFTOI
TAF
KTOI 010527Z 0106/0206 36004KT P6SM BKN100
      TEMPO 0109/0113 3SM BR
     FM011500 03004KT P6SM BKN150=



000
FTUS44 KBMX 010500
TAFTCL
TAF
KTCL 010527Z 0106/0206 03004KT P6SM SCT050 BKN100
     FM011500 02006KT P6SM BKN150=



000
FTUS44 KBMX 010500
TAFEET
TAF
KEET 010527Z 0106/0206 VRB03KT P6SM SCT050 BKN100
     FM011500 02006KT P6SM BKN150=



000
FTUS44 KBMX 312300
TAFTOI
TAF
KTOI 312320Z 0100/0124 36004KT P6SM BKN100
      TEMPO 0108/0112 3SM BR
     FM011500 06004KT P6SM BKN150=



000
FTUS44 KBMX 312300
TAFBHM
TAF
KBHM 312320Z 0100/0124 02006KT P6SM SCT050 BKN100
     FM011500 05003KT P6SM BKN150=



000
FTUS44 KBMX 312300
TAFTCL
TAF
KTCL 312320Z 0100/0124 03004KT P6SM SCT050 BKN100
     FM011500 07003KT P6SM BKN150=



000
FTUS44 KBMX 312300
TAFEET
TAF
KEET 312320Z 0100/0124 VRB03KT P6SM SCT050 BKN100
     FM011500 VRB03KT P6SM BKN150=



000
FTUS44 KBMX 312300
TAFMGM
TAF
KMGM 312320Z 0100/0124 36004KT P6SM BKN100
      TEMPO 0108/0112 4SM BR
     FM011500 06004KT P6SM BKN150=



000
FTUS44 KBMX 312300
TAFANB
TAF
KANB 312320Z 0100/0124 01004KT P6SM SCT050 BKN100
      TEMPO 0108/0112 3SM BR
     FM011400 07003KT P6SM VCSH BKN150=



000
FTUS44 KBMX 311700 RRA
TAFTOI
TAF
KTOI 311743Z 3118/0118 36004KT P6SM BKN100
      TEMPO 0108/0112 3SM BR
     FM011500 06004KT P6SM BKN150=



000
FTUS44 KBMX 311700 RRA
TAFMGM
TAF
KMGM 311743Z 3118/0118 36004KT P6SM BKN100
      TEMPO 0108/0112 4SM BR
     FM011500 06004KT P6SM BKN150=



000
FTUS44 KBMX 311700 RRA
TAFBHM
TAF
KBHM 311743Z 3118/0118 02006KT P6SM SCT050 BKN100
     FM011500 05003KT P6SM BKN150=



000
FTUS44 KBMX 311700 RRA
TAFTCL
TAF
KTCL 311743Z 3118/0118 03004KT P6SM SCT050 BKN100
     FM011500 07003KT P6SM BKN150=



000
FTUS44 KBMX 311700 RRA
TAFANB
TAF
KANB 311743Z 3118/0118 01004KT P6SM SCT050 BKN100
      TEMPO 0108/0112 3SM BR
     FM011500 07003KT P6SM BKN150=



000
FTUS44 KBMX 311700 RRA
TAFEET
TAF
KEET 311743Z 3118/0118 VRB03KT P6SM SCT050 BKN100
     FM011500 VRB03KT P6SM BKN150=



000
FTUS44 KBMX 311100
TAFTOI
TAF
KTOI 311121Z 3112/0112 36004KT P6SM BKN100=



000
FTUS44 KBMX 311100
TAFEET
TAF
KEET 311121Z 3112/0112 36004KT P6SM BKN100=



000
FTUS44 KBMX 311100
TAFTCL
TAF
KTCL 311121Z 3112/0112 36004KT P6SM BKN100=



000
FTUS44 KBMX 311100
TAFMGM
TAF
KMGM 311121Z 3112/0112 36004KT P6SM BKN100=



000
FTUS44 KBMX 311100
TAFANB
TAF
KANB 311121Z 3112/0112 03004KT P6SM BKN100=



000
FTUS44 KBMX 311100
TAFBHM
TAF
KBHM 311121Z 3112/0112 02005KT P6SM BKN100=



000
FTUS44 KBMX 310500
TAFBHM
TAF
KBHM 310520Z 3106/0106 03005KT P6SM BKN250
     FM010000 03004KT P6SM OVC100=



000
FTUS44 KBMX 310500
TAFMGM
TAF
KMGM 310520Z 3106/0106 01004KT P6SM BKN250
     FM010000 01006KT P6SM OVC150=



000
FTUS44 KBMX 310500
TAFTOI
TAF
KTOI 310520Z 3106/0106 01004KT P6SM BKN250
     FM010000 35003KT P6SM OVC150=



000
FTUS44 KBMX 310500
TAFEET
TAF
KEET 310520Z 3106/0106 36003KT P6SM BKN250
     FM010000 00000KT P6SM OVC100=



000
FTUS44 KBMX 310500
TAFTCL
TAF
KTCL 310520Z 3106/0106 01004KT P6SM BKN250
     FM010000 27005KT P6SM OVC050=



000
FTUS44 KBMX 310500
TAFANB
TAF
KANB 310520Z 3106/0106 03003KT P6SM BKN250
     FM312100 02005KT P6SM BKN050=



000
FTUS44 KBMX 302300
TAFTOI
TAF
KTOI 302333Z 3100/3124 34004KT P6SM SCT250=



000
FTUS44 KBMX 302300
TAFMGM
TAF
KMGM 302333Z 3100/3124 35005KT P6SM SCT250=



000
FTUS44 KBMX 302300
TAFANB
TAF
KANB 302333Z 3100/3124 VRB03KT P6SM SCT250=



000
FTUS44 KBMX 302300
TAFEET
TAF
KEET 302333Z 3100/3124 34003KT P6SM SCT250=



000
FTUS44 KBMX 302300
TAFTCL
TAF
KTCL 302333Z 3100/3124 34004KT P6SM BKN250=



000
FTUS44 KBMX 302300
TAFBHM
TAF
KBHM 302333Z 3100/3124 35005KT P6SM SCT250=



000
FTUS44 KBMX 301700
TAFMGM
TAF
KMGM 301722Z 3018/3118 35006KT P6SM SCT050
     FM311200 09003KT P6SM BKN060=



000
FTUS44 KBMX 301700
TAFEET
TAF
KEET 301722Z 3018/3118 01005KT P6SM SCT050=



000
FTUS44 KBMX 301700
TAFANB
TAF
KANB 301722Z 3018/3118 03006KT P6SM SCT050=



000
FTUS44 KBMX 301700
TAFTCL
TAF
KTCL 301722Z 3018/3118 01006KT P6SM SCT050=



000
FTUS44 KBMX 301700
TAFBHM
TAF
KBHM 301722Z 3018/3118 01006KT P6SM SCT050=



000
FTUS44 KBMX 301700
TAFTOI
TAF
KTOI 301722Z 3018/3118 35006KT P6SM SCT050
     FM311200 08003KT P6SM BKN060=



000
FTUS44 KBMX 301100
TAFTCL
TAF
KTCL 301123Z 3012/3112 01006KT P6SM SCT250=



000
FTUS44 KBMX 301100
TAFMGM
TAF
KMGM 301123Z 3012/3112 35006KT P6SM SCT250=



000
FTUS44 KBMX 301100
TAFANB
TAF
KANB 301123Z 3012/3112 01006KT P6SM SCT250=



000
FTUS44 KBMX 301100
TAFEET
TAF
KEET 301123Z 3012/3112 01005KT P6SM SCT250=



000
FTUS44 KBMX 301100
TAFBHM
TAF
KBHM 301123Z 3012/3112 01006KT P6SM SCT250=



000
FTUS44 KBMX 301100
TAFTOI
TAF
KTOI 301123Z 3012/3112 35006KT P6SM SCT250=



000
FTUS44 KBMX 300500
TAFEET
TAF
KEET 300523Z 3006/3106 35003KT P6SM SKC=



000
FTUS44 KBMX 300500
TAFTOI
TAF
KTOI 300523Z 3006/3106 34005KT P6SM SKC=



000
FTUS44 KBMX 300500
TAFBHM
TAF
KBHM 300523Z 3006/3106 35005KT P6SM SKC=



000
FTUS44 KBMX 300500
TAFANB
TAF
KANB 300523Z 3006/3106 34005KT P6SM SKC=



000
FTUS44 KBMX 300500
TAFMGM
TAF
KMGM 300523Z 3006/3106 34005KT P6SM SKC=



000
FTUS44 KBMX 300500
TAFTCL
TAF
KTCL 300523Z 3006/3106 36005KT P6SM SKC=



000
FTUS44 KBMX 292300
TAFANB
TAF
KANB 292322Z 3000/3024 34005KT P6SM SKC=



000
FTUS44 KBMX 292300
TAFEET
TAF
KEET 292322Z 3000/3024 35003KT P6SM SKC=



000
FTUS44 KBMX 292300
TAFTCL
TAF
KTCL 292322Z 3000/3024 36005KT P6SM SKC=



000
FTUS44 KBMX 292300
TAFTOI
TAF
KTOI 292322Z 3000/3024 34005KT P6SM SKC=



000
FTUS44 KBMX 292300
TAFBHM
TAF
KBHM 292322Z 3000/3024 35005KT P6SM SKC=



000
FTUS44 KBMX 292300
TAFMGM
TAF
KMGM 292322Z 3000/3024 34005KT P6SM SKC=



000
FTUS44 KBMX 291700
TAFMGM
TAF
KMGM 291720Z 2918/3018 33012G18KT P6SM BKN050
     FM300100 35005KT P6SM SKC=



000
FTUS44 KBMX 291700
TAFANB
TAF
KANB 291720Z 2918/3018 32011G18KT P6SM BKN050
     FM300100 35004KT P6SM SKC=



000
FTUS44 KBMX 291700
TAFBHM
TAF
KBHM 291720Z 2918/3018 31011G18KT P6SM BKN050
     FM300100 35005KT P6SM SKC=



000
FTUS44 KBMX 291700
TAFTOI
TAF
KTOI 291720Z 2918/3018 33011G18KT P6SM BKN050
     FM300100 35005KT P6SM SKC=



000
FTUS44 KBMX 291700
TAFTCL
TAF
KTCL 291720Z 2918/3018 34010G18KT P6SM BKN050
     FM300100 36003KT P6SM SKC=



000
FTUS44 KBMX 291700
TAFEET
TAF
KEET 291720Z 2918/3018 33010G18KT P6SM BKN050
     FM300100 35003KT P6SM SKC=



000
FTUS44 KBMX 291100
TAFANB
TAF
KANB 291126Z 2912/3012 32005KT P6SM SKC
     FM291500 32011KT P6SM SKC
     FM300100 35004KT P6SM SKC=



000
FTUS44 KBMX 291100
TAFEET
TAF
KEET 291126Z 2912/3012 34005KT P6SM SKC
     FM291500 33010KT P6SM SKC
     FM300100 35003KT P6SM SKC=



000
FTUS44 KBMX 291100
TAFBHM
TAF
KBHM 291126Z 2912/3012 35005KT P6SM SKC
     FM291500 33011G18KT P6SM SKC
     FM300100 35005KT P6SM SKC=



000
FTUS44 KBMX 291100
TAFMGM
TAF
KMGM 291126Z 2912/3012 32005KT P6SM SKC
     FM291500 33012KT P6SM SKC
     FM300100 35005KT P6SM SKC=



000
FTUS44 KBMX 291100
TAFTOI
TAF
KTOI 291126Z 2912/3012 33004KT P6SM SKC
     FM291500 33011KT P6SM SKC
     FM300100 35005KT P6SM SKC=



000
FTUS44 KBMX 291100
TAFTCL
TAF
KTCL 291126Z 2912/3012 35005KT P6SM SKC
     FM291500 34010KT P6SM SKC
     FM300100 36003KT P6SM SKC=



    US Dept of Commerce
    National Oceanic and Atmospheric Administration
    National Weather Service
    1325 East West Highway
    Silver Spring, MD 20910
    Page Author: NWS Internet Services Team
Disclaimer
Information Quality
Credits
Glossary
Privacy Policy
Freedom of Information Act (FOIA)
About Us
Career Opportunities